sensor_id;sensor_type;location;lat;lon;timestamp;pressure;altitude;pressure_sealevel;temperature;humidity
64078;BME280;51039;49.696;10.808;2023-04-24T00:02:09;97315.66;;;11.25;97.78
64078;BME280;51039;49.696;10.808;2023-04-24T00:04:36;97325.81;;;11.28;97.45
64078;BME280;51039;49.696;10.808;2023-04-24T00:07:05;97320.84;;;11.32;96.79
64078;BME280;51039;49.696;10.808;2023-04-24T00:09:31;97326.97;;;11.32;96.79
64078;BME280;51039;49.696;10.808;2023-04-24T00:11:57;97315.09;;;11.23;96.98
64078;BME280;51039;49.696;10.808;2023-04-24T00:14:22;97312.22;;;11.25;96.63
64078;BME280;51039;49.696;10.808;2023-04-24T00:16:48;97314.75;;;11.19;96.62
64078;BME280;51039;49.696;10.808;2023-04-24T00:19:13;97316.13;;;11.10;97.39
64078;BME280;51039;49.696;10.808;2023-04-24T00:21:38;97313.81;;;11.14;97.22
64078;BME280;51039;49.696;10.808;2023-04-24T00:24:04;97302.44;;;11.13;97.12
64078;BME280;51039;49.696;10.808;2023-04-24T00:26:30;97303.59;;;11.06;96.90
64078;BME280;51039;49.696;10.808;2023-04-24T00:28:55;97308.53;;;11.02;97.22
64078;BME280;51039;49.696;10.808;2023-04-24T00:31:21;97311.66;;;10.99;97.15
64078;BME280;51039;49.696;10.808;2023-04-24T00:33:46;97323.50;;;10.96;97.17
64078;BME280;51039;49.696;10.808;2023-04-24T00:36:11;97325.00;;;10.92;97.32
64078;BME280;51039;49.696;10.808;2023-04-24T00:38:36;97324.88;;;10.87;97.25
64078;BME280;51039;49.696;10.808;2023-04-24T00:41:02;97329.75;;;10.90;97.24
64078;BME280;51039;49.696;10.808;2023-04-24T00:43:27;97324.78;;;10.94;96.91
64078;BME280;51039;49.696;10.808;2023-04-24T00:45:52;97315.00;;;10.94;96.85
64078;BME280;51039;49.696;10.808;2023-04-24T00:48:18;97319.38;;;11.00;96.32
64078;BME280;51039;49.696;10.808;2023-04-24T00:50:45;97318.13;;;11.03;96.20
64078;BME280;51039;49.696;10.808;2023-04-24T00:53:10;97312.91;;;10.96;96.47
64078;BME280;51039;49.696;10.808;2023-04-24T00:55:36;97315.34;;;10.98;96.58
64078;BME280;51039;49.696;10.808;2023-04-24T00:58:02;97323.41;;;11.03;96.28
64078;BME280;51039;49.696;10.808;2023-04-24T01:00:27;97311.91;;;10.97;96.95
64078;BME280;51039;49.696;10.808;2023-04-24T01:02:53;97310.03;;;10.98;96.66
64078;BME280;51039;49.696;10.808;2023-04-24T01:05:20;97305.19;;;10.95;97.20
64078;BME280;51039;49.696;10.808;2023-04-24T01:07:46;97316.38;;;10.97;97.10
64078;BME280;51039;49.696;10.808;2023-04-24T01:10:14;97318.00;;;10.98;97.12
64078;BME280;51039;49.696;10.808;2023-04-24T01:12:40;97317.41;;;10.96;97.79
64078;BME280;51039;49.696;10.808;2023-04-24T01:15:05;97323.06;;;10.99;97.69
64078;BME280;51039;49.696;10.808;2023-04-24T01:17:32;97320.41;;;10.99;98.01
64078;BME280;51039;49.696;10.808;2023-04-24T01:19:58;97322.28;;;10.99;98.51
64078;BME280;51039;49.696;10.808;2023-04-24T01:22:24;97323.16;;;11.05;98.28
64078;BME280;51039;49.696;10.808;2023-04-24T01:24:50;97320.28;;;10.94;99.45
64078;BME280;51039;49.696;10.808;2023-04-24T01:27:16;97315.34;;;10.98;99.31
64078;BME280;51039;49.696;10.808;2023-04-24T01:29:41;97316.72;;;11.00;98.57
64078;BME280;51039;49.696;10.808;2023-04-24T01:32:07;97315.13;;;10.99;98.78
64078;BME280;51039;49.696;10.808;2023-04-24T01:34:33;97315.56;;;10.96;99.41
64078;BME280;51039;49.696;10.808;2023-04-24T01:36:59;97310.75;;;10.93;99.61
64078;BME280;51039;49.696;10.808;2023-04-24T01:39:25;97314.28;;;10.87;100.00
64078;BME280;51039;49.696;10.808;2023-04-24T01:41:53;97315.47;;;10.91;100.00
64078;BME280;51039;49.696;10.808;2023-04-24T01:44:18;97314.19;;;10.94;100.00
64078;BME280;51039;49.696;10.808;2023-04-24T01:46:44;97312.56;;;10.93;100.00
64078;BME280;51039;49.696;10.808;2023-04-24T01:49:09;97316.03;;;10.93;100.00
64078;BME280;51039;49.696;10.808;2023-04-24T01:51:35;97312.00;;;10.91;100.00
64078;BME280;51039;49.696;10.808;2023-04-24T01:54:01;97310.63;;;10.88;100.00
64078;BME280;51039;49.696;10.808;2023-04-24T01:56:26;97313.03;;;10.90;100.00
64078;BME280;51039;49.696;10.808;2023-04-24T01:58:54;97309.34;;;10.79;100.00
64078;BME280;51039;49.696;10.808;2023-04-24T02:01:20;97306.69;;;10.79;100.00
64078;BME280;51039;49.696;10.808;2023-04-24T02:03:46;97305.91;;;10.78;100.00
64078;BME280;51039;49.696;10.808;2023-04-24T02:06:11;97301.41;;;10.79;100.00
64078;BME280;51039;49.696;10.808;2023-04-24T02:08:36;97297.72;;;10.80;100.00
64078;BME280;51039;49.696;10.808;2023-04-24T02:11:02;97288.72;;;10.81;100.00
64078;BME280;51039;49.696;10.808;2023-04-24T02:13:28;97282.84;;;10.79;100.00
64078;BME280;51039;49.696;10.808;2023-04-24T02:15:53;97274.13;;;10.78;100.00
64078;BME280;51039;49.696;10.808;2023-04-24T02:18:18;97282.84;;;10.79;100.00
64078;BME280;51039;49.696;10.808;2023-04-24T02:20:44;97284.72;;;10.78;100.00
64078;BME280;51039;49.696;10.808;2023-04-24T02:23:10;97279.28;;;10.73;100.00
64078;BME280;51039;49.696;10.808;2023-04-24T02:25:35;97270.75;;;10.71;100.00
64078;BME280;51039;49.696;10.808;2023-04-24T02:28:00;97275.84;;;10.73;100.00
64078;BME280;51039;49.696;10.808;2023-04-24T02:30:26;97275.38;;;10.76;100.00
64078;BME280;51039;49.696;10.808;2023-04-24T02:32:51;97282.28;;;10.77;100.00
64078;BME280;51039;49.696;10.808;2023-04-24T02:35:16;97279.50;;;10.72;100.00
64078;BME280;51039;49.696;10.808;2023-04-24T02:37:42;97275.84;;;10.73;100.00
64078;BME280;51039;49.696;10.808;2023-04-24T02:40:07;97269.75;;;10.72;100.00
64078;BME280;51039;49.696;10.808;2023-04-24T02:42:33;97272.03;;;10.69;100.00
64078;BME280;51039;49.696;10.808;2023-04-24T02:44:59;97268.47;;;10.63;100.00
64078;BME280;51039;49.696;10.808;2023-04-24T02:47:24;97267.53;;;10.57;100.00
64078;BME280;51039;49.696;10.808;2023-04-24T02:49:49;97267.19;;;10.54;100.00
64078;BME280;51039;49.696;10.808;2023-04-24T02:52:14;97268.47;;;10.51;100.00
64078;BME280;51039;49.696;10.808;2023-04-24T02:54:40;97260.63;;;10.45;100.00
64078;BME280;51039;49.696;10.808;2023-04-24T02:57:05;97258.78;;;10.45;100.00
64078;BME280;51039;49.696;10.808;2023-04-24T02:59:31;97258.66;;;10.40;100.00
64078;BME280;51039;49.696;10.808;2023-04-24T03:01:56;97262.91;;;10.41;100.00
64078;BME280;51039;49.696;10.808;2023-04-24T03:04:22;97257.94;;;10.33;100.00
64078;BME280;51039;49.696;10.808;2023-04-24T03:06:47;97258.19;;;10.31;100.00
64078;BME280;51039;49.696;10.808;2023-04-24T03:09:13;97252.66;;;10.33;100.00
64078;BME280;51039;49.696;10.808;2023-04-24T03:11:38;97250.59;;;10.35;100.00
64078;BME280;51039;49.696;10.808;2023-04-24T03:14:05;97250.38;;;10.36;99.48
64078;BME280;51039;49.696;10.808;2023-04-24T03:16:30;97251.75;;;10.39;99.35
64078;BME280;51039;49.696;10.808;2023-04-24T03:18:56;97253.59;;;10.38;99.07
64078;BME280;51039;49.696;10.808;2023-04-24T03:21:21;97253.72;;;10.32;99.21
64078;BME280;51039;49.696;10.808;2023-04-24T03:23:47;97255.75;;;10.30;99.26
64078;BME280;51039;49.696;10.808;2023-04-24T03:26:12;97258.03;;;10.26;99.17
64078;BME280;51039;49.696;10.808;2023-04-24T03:28:38;97256.06;;;10.21;99.05
64078;BME280;51039;49.696;10.808;2023-04-24T03:31:03;97259.63;;;10.15;99.18
64078;BME280;51039;49.696;10.808;2023-04-24T03:33:28;97261.69;;;10.13;99.32
64078;BME280;51039;49.696;10.808;2023-04-24T03:35:54;97263.91;;;10.16;98.78
64078;BME280;51039;49.696;10.808;2023-04-24T03:38:19;97258.03;;;10.14;97.50
64078;BME280;51039;49.696;10.808;2023-04-24T03:40:44;97256.97;;;10.15;97.48
64078;BME280;51039;49.696;10.808;2023-04-24T03:43:10;97258.34;;;10.18;97.15
64078;BME280;51039;49.696;10.808;2023-04-24T03:45:35;97255.13;;;10.16;97.18
64078;BME280;51039;49.696;10.808;2023-04-24T03:48:00;97271.00;;;10.16;97.03
64078;BME280;51039;49.696;10.808;2023-04-24T03:50:26;97263.19;;;10.09;97.52
64078;BME280;51039;49.696;10.808;2023-04-24T03:52:51;97259.81;;;10.02;97.57
64078;BME280;51039;49.696;10.808;2023-04-24T03:55:17;97260.63;;;10.02;97.81
64078;BME280;51039;49.696;10.808;2023-04-24T03:57:42;97266.38;;;9.99;97.82
64078;BME280;51039;49.696;10.808;2023-04-24T04:00:07;97262.56;;;9.95;97.92
64078;BME280;51039;49.696;10.808;2023-04-24T04:02:34;97257.28;;;9.95;97.95
64078;BME280;51039;49.696;10.808;2023-04-24T04:04:59;97251.88;;;10.02;97.45
64078;BME280;51039;49.696;10.808;2023-04-24T04:07:24;97255.31;;;10.02;97.00
64078;BME280;51039;49.696;10.808;2023-04-24T04:09:50;97258.56;;;10.05;96.85
64078;BME280;51039;49.696;10.808;2023-04-24T04:12:15;97252.09;;;10.00;97.06
64078;BME280;51039;49.696;10.808;2023-04-24T04:14:41;97259.22;;;10.00;97.26
64078;BME280;51039;49.696;10.808;2023-04-24T04:17:06;97249.00;;;9.92;97.23
64078;BME280;51039;49.696;10.808;2023-04-24T04:19:31;97258.84;;;9.85;97.65
64078;BME280;51039;49.696;10.808;2023-04-24T04:21:57;97259.75;;;9.78;97.98
64078;BME280;51039;49.696;10.808;2023-04-24T04:24:22;97256.78;;;9.87;97.82
64078;BME280;51039;49.696;10.808;2023-04-24T04:26:48;97262.00;;;9.93;97.57
64078;BME280;51039;49.696;10.808;2023-04-24T04:29:16;97265.66;;;9.92;97.39
64078;BME280;51039;49.696;10.808;2023-04-24T04:31:43;97273.16;;;9.95;97.62
64078;BME280;51039;49.696;10.808;2023-04-24T04:34:08;97263.72;;;9.99;97.23
64078;BME280;51039;49.696;10.808;2023-04-24T04:36:34;97261.53;;;9.96;97.31
64078;BME280;51039;49.696;10.808;2023-04-24T04:39:01;97265.69;;;10.04;97.05
64078;BME280;51039;49.696;10.808;2023-04-24T04:41:27;97266.97;;;10.13;95.91
64078;BME280;51039;49.696;10.808;2023-04-24T04:43:53;97267.69;;;10.20;95.62
64078;BME280;51039;49.696;10.808;2023-04-24T04:46:18;97263.34;;;10.26;95.44
64078;BME280;51039;49.696;10.808;2023-04-24T04:48:43;97266.13;;;10.31;95.58
64078;BME280;51039;49.696;10.808;2023-04-24T04:51:09;97264.75;;;10.40;94.54
64078;BME280;51039;49.696;10.808;2023-04-24T04:53:34;97267.41;;;10.52;93.50
64078;BME280;51039;49.696;10.808;2023-04-24T04:56:00;97276.84;;;10.72;92.98
64078;BME280;51039;49.696;10.808;2023-04-24T04:58:25;97271.47;;;10.78;92.05
64078;BME280;51039;49.696;10.808;2023-04-24T05:00:50;97269.97;;;10.83;90.95
64078;BME280;51039;49.696;10.808;2023-04-24T05:03:17;97278.47;;;10.85;90.90
64078;BME280;51039;49.696;10.808;2023-04-24T05:05:42;97281.47;;;10.88;92.97
64078;BME280;51039;49.696;10.808;2023-04-24T05:08:08;97288.06;;;10.97;91.42
64078;BME280;51039;49.696;10.808;2023-04-24T05:10:33;97286.66;;;11.07;91.13
64078;BME280;51039;49.696;10.808;2023-04-24T05:12:59;97286.66;;;11.18;90.93
64078;BME280;51039;49.696;10.808;2023-04-24T05:15:24;97284.09;;;11.24;89.74
64078;BME280;51039;49.696;10.808;2023-04-24T05:17:49;97289.03;;;11.20;89.19
64078;BME280;51039;49.696;10.808;2023-04-24T05:20:15;97291.81;;;11.25;89.53
64078;BME280;51039;49.696;10.808;2023-04-24T05:22:40;97291.44;;;11.33;88.79
64078;BME280;51039;49.696;10.808;2023-04-24T05:25:05;97298.38;;;11.34;88.68
64078;BME280;51039;49.696;10.808;2023-04-24T05:27:31;97303.78;;;11.39;88.58
64078;BME280;51039;49.696;10.808;2023-04-24T05:29:56;97304.78;;;11.50;88.40
64078;BME280;51039;49.696;10.808;2023-04-24T05:32:22;97311.03;;;11.44;89.48
64078;BME280;51039;49.696;10.808;2023-04-24T05:34:47;97307.09;;;11.47;89.33
64078;BME280;51039;49.696;10.808;2023-04-24T05:37:13;97314.97;;;11.42;88.89
64078;BME280;51039;49.696;10.808;2023-04-24T05:39:38;97305.59;;;11.39;89.22
64078;BME280;51039;49.696;10.808;2023-04-24T05:42:03;97313.00;;;11.25;89.84
64078;BME280;51039;49.696;10.808;2023-04-24T05:44:30;97315.31;;;11.33;89.93
64078;BME280;51039;49.696;10.808;2023-04-24T05:46:55;97321.41;;;11.46;90.63
64078;BME280;51039;49.696;10.808;2023-04-24T05:49:21;97321.75;;;11.49;89.45
64078;BME280;51039;49.696;10.808;2023-04-24T05:51:47;97318.03;;;11.50;90.27
64078;BME280;51039;49.696;10.808;2023-04-24T05:54:12;97323.03;;;11.35;89.85
64078;BME280;51039;49.696;10.808;2023-04-24T05:56:37;97317.50;;;11.36;90.43
64078;BME280;51039;49.696;10.808;2023-04-24T05:59:03;97325.13;;;11.21;89.91
64078;BME280;51039;49.696;10.808;2023-04-24T06:01:29;97332.16;;;11.15;91.32
64078;BME280;51039;49.696;10.808;2023-04-24T06:03:54;97322.72;;;11.08;92.64
64078;BME280;51039;49.696;10.808;2023-04-24T06:06:20;97351.50;;;11.04;94.90
64078;BME280;51039;49.696;10.808;2023-04-24T06:08:45;97354.28;;;10.97;96.63
64078;BME280;51039;49.696;10.808;2023-04-24T06:11:11;97360.59;;;10.73;97.39
64078;BME280;51039;49.696;10.808;2023-04-24T06:13:36;97359.72;;;10.49;98.73
64078;BME280;51039;49.696;10.808;2023-04-24T06:16:01;97343.94;;;10.42;100.00
64078;BME280;51039;49.696;10.808;2023-04-24T06:18:27;97340.28;;;10.43;100.00
64078;BME280;51039;49.696;10.808;2023-04-24T06:20:52;97347.94;;;10.33;99.39
64078;BME280;51039;49.696;10.808;2023-04-24T06:23:17;97347.38;;;10.31;99.94
64078;BME280;51039;49.696;10.808;2023-04-24T06:25:43;97343.09;;;10.30;100.00
64078;BME280;51039;49.696;10.808;2023-04-24T06:28:08;97351.75;;;10.37;100.00
64078;BME280;51039;49.696;10.808;2023-04-24T06:30:33;97348.34;;;10.48;99.51
64078;BME280;51039;49.696;10.808;2023-04-24T06:32:59;97349.50;;;10.52;98.16
64078;BME280;51039;49.696;10.808;2023-04-24T06:35:24;97356.19;;;10.55;98.18
64078;BME280;51039;49.696;10.808;2023-04-24T06:37:50;97359.28;;;10.52;98.11
64078;BME280;51039;49.696;10.808;2023-04-24T06:40:16;97360.41;;;10.44;98.72
64078;BME280;51039;49.696;10.808;2023-04-24T06:42:43;97358.00;;;10.43;99.17
64078;BME280;51039;49.696;10.808;2023-04-24T06:45:09;97362.81;;;10.34;99.72
64078;BME280;51039;49.696;10.808;2023-04-24T06:47:34;97361.91;;;10.40;99.47
64078;BME280;51039;49.696;10.808;2023-04-24T06:50:00;97359.69;;;10.37;98.42
64078;BME280;51039;49.696;10.808;2023-04-24T06:52:25;97363.09;;;10.56;98.12
64078;BME280;51039;49.696;10.808;2023-04-24T06:54:50;97360.25;;;10.81;97.75
64078;BME280;51039;49.696;10.808;2023-04-24T06:57:16;97367.88;;;11.01;95.62
64078;BME280;51039;49.696;10.808;2023-04-24T06:59:43;97369.25;;;11.39;93.78
64078;BME280;51039;49.696;10.808;2023-04-24T07:02:08;97369.69;;;11.59;91.39
64078;BME280;51039;49.696;10.808;2023-04-24T07:04:34;97371.63;;;11.76;92.28
64078;BME280;51039;49.696;10.808;2023-04-24T07:06:59;97379.69;;;11.69;90.74
64078;BME280;51039;49.696;10.808;2023-04-24T07:09:25;97377.22;;;12.94;86.39
64078;BME280;51039;49.696;10.808;2023-04-24T07:11:51;97380.56;;;13.24;82.48
64078;BME280;51039;49.696;10.808;2023-04-24T07:14:16;97384.69;;;12.64;83.17
64078;BME280;51039;49.696;10.808;2023-04-24T07:16:42;97392.91;;;13.47;81.40
64078;BME280;51039;49.696;10.808;2023-04-24T07:19:08;97380.84;;;14.54;76.62
64078;BME280;51039;49.696;10.808;2023-04-24T07:21:34;97388.38;;;14.90;72.45
64078;BME280;51039;49.696;10.808;2023-04-24T07:23:59;97390.78;;;13.49;76.31
64078;BME280;51039;49.696;10.808;2023-04-24T07:26:25;97392.19;;;13.34;75.06
64078;BME280;51039;49.696;10.808;2023-04-24T07:28:51;97403.22;;;12.92;77.66
64078;BME280;51039;49.696;10.808;2023-04-24T07:31:17;97391.31;;;12.95;77.90
64078;BME280;51039;49.696;10.808;2023-04-24T07:33:42;97391.25;;;14.83;71.84
64078;BME280;51039;49.696;10.808;2023-04-24T07:36:08;97389.53;;;17.14;62.09
64078;BME280;51039;49.696;10.808;2023-04-24T07:38:40;97394.00;;;18.35;58.03
64078;BME280;51039;49.696;10.808;2023-04-24T07:41:05;97393.38;;;19.22;54.68
64078;BME280;51039;49.696;10.808;2023-04-24T07:43:31;97404.63;;;21.21;50.86
64078;BME280;51039;49.696;10.808;2023-04-24T07:45:56;97389.56;;;21.34;45.67
64078;BME280;51039;49.696;10.808;2023-04-24T07:48:21;97389.00;;;20.28;45.15
64078;BME280;51039;49.696;10.808;2023-04-24T07:50:47;97393.75;;;19.11;46.51
64078;BME280;51039;49.696;10.808;2023-04-24T07:53:12;97399.06;;;17.77;50.07
64078;BME280;51039;49.696;10.808;2023-04-24T07:55:37;97408.47;;;16.66;53.31
64078;BME280;51039;49.696;10.808;2023-04-24T07:58:03;97412.44;;;16.48;52.29
64078;BME280;51039;49.696;10.808;2023-04-24T08:00:29;97417.84;;;16.69;50.44
64078;BME280;51039;49.696;10.808;2023-04-24T08:02:54;97419.34;;;16.29;53.91
64078;BME280;51039;49.696;10.808;2023-04-24T08:05:19;97422.94;;;15.12;59.64
64078;BME280;51039;49.696;10.808;2023-04-24T08:07:45;97422.78;;;14.64;62.19
64078;BME280;51039;49.696;10.808;2023-04-24T08:10:13;97429.94;;;14.59;62.51
64078;BME280;51039;49.696;10.808;2023-04-24T08:12:39;97424.00;;;15.48;57.84
64078;BME280;51039;49.696;10.808;2023-04-24T08:15:05;97427.00;;;15.57;57.34
64078;BME280;51039;49.696;10.808;2023-04-24T08:17:31;97431.84;;;15.23;58.50
64078;BME280;51039;49.696;10.808;2023-04-24T08:19:56;97442.16;;;15.09;59.08
64078;BME280;51039;49.696;10.808;2023-04-24T08:22:26;97446.78;;;14.64;60.20
64078;BME280;51039;49.696;10.808;2023-04-24T08:24:52;97441.38;;;13.88;61.07
64078;BME280;51039;49.696;10.808;2023-04-24T08:27:18;97446.56;;;14.00;60.65
64078;BME280;51039;49.696;10.808;2023-04-24T08:29:43;97449.75;;;13.80;63.13
64078;BME280;51039;49.696;10.808;2023-04-24T08:32:09;97442.19;;;13.71;63.52
64078;BME280;51039;49.696;10.808;2023-04-24T08:34:34;97443.22;;;13.31;63.93
64078;BME280;51039;49.696;10.808;2023-04-24T08:36:59;97442.56;;;13.24;65.05
64078;BME280;51039;49.696;10.808;2023-04-24T08:39:25;97446.34;;;14.50;62.25
64078;BME280;51039;49.696;10.808;2023-04-24T08:41:50;97440.06;;;14.34;61.46
64078;BME280;51039;49.696;10.808;2023-04-24T08:44:17;97447.00;;;13.91;61.27
64078;BME280;51039;49.696;10.808;2023-04-24T08:46:44;97442.94;;;13.16;64.05
64078;BME280;51039;49.696;10.808;2023-04-24T08:49:13;97441.00;;;12.94;64.75
64078;BME280;51039;49.696;10.808;2023-04-24T08:51:43;97448.75;;;13.13;63.99
64078;BME280;51039;49.696;10.808;2023-04-24T08:54:11;97454.19;;;13.35;63.46
64078;BME280;51039;49.696;10.808;2023-04-24T08:56:37;97445.88;;;13.48;60.96
64078;BME280;51039;49.696;10.808;2023-04-24T08:59:05;97448.19;;;13.45;60.71
64078;BME280;51039;49.696;10.808;2023-04-24T09:01:32;97441.28;;;13.83;60.36
64078;BME280;51039;49.696;10.808;2023-04-24T09:03:58;97449.28;;;13.83;61.57
64078;BME280;51039;49.696;10.808;2023-04-24T09:06:27;97453.31;;;14.07;59.98
64078;BME280;51039;49.696;10.808;2023-04-24T09:08:53;97444.69;;;14.44;58.86
64078;BME280;51039;49.696;10.808;2023-04-24T09:11:19;97458.00;;;14.66;57.64
64078;BME280;51039;49.696;10.808;2023-04-24T09:13:45;97452.03;;;15.14;54.92
64078;BME280;51039;49.696;10.808;2023-04-24T09:16:13;97457.19;;;14.93;57.08
64078;BME280;51039;49.696;10.808;2023-04-24T09:18:39;97456.34;;;14.60;56.72
64078;BME280;51039;49.696;10.808;2023-04-24T09:21:08;97447.91;;;14.46;56.72
64078;BME280;51039;49.696;10.808;2023-04-24T09:23:34;97451.88;;;14.22;57.25
64078;BME280;51039;49.696;10.808;2023-04-24T09:26:00;97448.28;;;15.47;54.16
64078;BME280;51039;49.696;10.808;2023-04-24T09:28:37;97448.47;;;16.36;52.93
64078;BME280;51039;49.696;10.808;2023-04-24T09:33:33;97439.41;;;15.74;53.07
64078;BME280;51039;49.696;10.808;2023-04-24T09:35:59;97428.59;;;16.95;51.57
64078;BME280;51039;49.696;10.808;2023-04-24T09:38:37;97435.25;;;16.82;51.26
64078;BME280;51039;49.696;10.808;2023-04-24T09:41:07;97422.66;;;15.46;52.85
64078;BME280;51039;49.696;10.808;2023-04-24T09:43:33;97434.28;;;14.65;54.08
64078;BME280;51039;49.696;10.808;2023-04-24T09:46:07;97431.59;;;13.93;56.03
64078;BME280;51039;49.696;10.808;2023-04-24T09:48:35;97432.78;;;13.64;58.84
64078;BME280;51039;49.696;10.808;2023-04-24T09:51:02;97436.19;;;13.42;59.14
64078;BME280;51039;49.696;10.808;2023-04-24T09:53:32;97436.41;;;12.73;61.13
64078;BME280;51039;49.696;10.808;2023-04-24T09:56:10;97455.91;;;12.50;62.84
64078;BME280;51039;49.696;10.808;2023-04-24T09:58:37;97461.94;;;12.45;64.81
64078;BME280;51039;49.696;10.808;2023-04-24T10:01:03;97463.97;;;12.55;65.71
64078;BME280;51039;49.696;10.808;2023-04-24T10:03:30;97485.56;;;12.06;69.33
64078;BME280;51039;49.696;10.808;2023-04-24T10:06:00;97496.28;;;11.52;72.64
64078;BME280;51039;49.696;10.808;2023-04-24T10:08:26;97510.59;;;11.39;77.38
64078;BME280;51039;49.696;10.808;2023-04-24T10:10:58;97497.34;;;11.39;78.40
64078;BME280;51039;49.696;10.808;2023-04-24T10:13:24;97499.53;;;11.66;73.39
64078;BME280;51039;49.696;10.808;2023-04-24T10:15:50;97493.16;;;12.26;68.76
64078;BME280;51039;49.696;10.808;2023-04-24T10:18:16;97494.91;;;12.61;65.48
64078;BME280;51039;49.696;10.808;2023-04-24T10:20:41;97499.44;;;12.77;65.39
64078;BME280;51039;49.696;10.808;2023-04-24T10:23:07;97503.06;;;12.71;64.63
64078;BME280;51039;49.696;10.808;2023-04-24T10:25:33;97497.50;;;12.73;61.02
64078;BME280;51039;49.696;10.808;2023-04-24T10:28:00;97499.81;;;12.69;60.59
64078;BME280;51039;49.696;10.808;2023-04-24T10:30:30;97509.94;;;12.84;61.02
64078;BME280;51039;49.696;10.808;2023-04-24T10:33:04;97512.28;;;13.60;59.26
64078;BME280;51039;49.696;10.808;2023-04-24T10:35:31;97516.91;;;13.48;59.18
64078;BME280;51039;49.696;10.808;2023-04-24T10:38:00;97508.81;;;13.60;59.45
64078;BME280;51039;49.696;10.808;2023-04-24T10:40:30;97509.94;;;15.13;56.66
64078;BME280;51039;49.696;10.808;2023-04-24T10:42:58;97516.28;;;16.14;52.45
64078;BME280;51039;49.696;10.808;2023-04-24T10:45:24;97510.63;;;16.74;52.37
64078;BME280;51039;49.696;10.808;2023-04-24T10:50:46;97508.91;;;14.65;55.79
64078;BME280;51039;49.696;10.808;2023-04-24T10:53:16;97508.53;;;14.34;55.45
64078;BME280;51039;49.696;10.808;2023-04-24T10:55:44;97504.91;;;15.54;52.87
64078;BME280;51039;49.696;10.808;2023-04-24T10:58:12;97510.72;;;16.26;53.16
64078;BME280;51039;49.696;10.808;2023-04-24T11:00:37;97499.13;;;16.73;50.48
64078;BME280;51039;49.696;10.808;2023-04-24T11:03:05;97499.50;;;16.29;50.09
64078;BME280;51039;49.696;10.808;2023-04-24T11:05:50;97493.59;;;15.74;50.59
64078;BME280;51039;49.696;10.808;2023-04-24T11:08:23;97510.72;;;16.26;50.19
64078;BME280;51039;49.696;10.808;2023-04-24T11:11:02;97503.09;;;15.27;52.08
64078;BME280;51039;49.696;10.808;2023-04-24T11:14:06;97512.09;;;14.89;53.16
64078;BME280;51039;49.696;10.808;2023-04-24T11:19:02;97504.50;;;14.53;49.70
64078;BME280;51039;49.696;10.808;2023-04-24T11:24:28;97494.91;;;14.80;50.51
64078;BME280;51039;49.696;10.808;2023-04-24T11:29:42;97507.81;;;14.61;52.13
64078;BME280;51039;49.696;10.808;2023-04-24T11:32:29;97511.75;;;14.36;53.94
64078;BME280;51039;49.696;10.808;2023-04-24T11:34:59;97509.94;;;14.20;54.91
64078;BME280;51039;49.696;10.808;2023-04-24T11:37:27;97515.16;;;15.03;54.53
64078;BME280;51039;49.696;10.808;2023-04-24T11:39:58;97525.84;;;16.05;51.67
64078;BME280;51039;49.696;10.808;2023-04-24T11:42:23;97516.25;;;16.09;51.98
64078;BME280;51039;49.696;10.808;2023-04-24T11:44:51;97517.69;;;16.27;49.54
64078;BME280;51039;49.696;10.808;2023-04-24T11:47:18;97529.00;;;16.55;48.89
64078;BME280;51039;49.696;10.808;2023-04-24T11:49:43;97541.66;;;16.12;49.80
64078;BME280;51039;49.696;10.808;2023-04-24T11:52:09;97533.69;;;15.47;50.38
64078;BME280;51039;49.696;10.808;2023-04-24T11:54:35;97543.81;;;15.45;51.80
64078;BME280;51039;49.696;10.808;2023-04-24T11:57:03;97534.28;;;15.92;50.85
64078;BME280;51039;49.696;10.808;2023-04-24T11:59:34;97550.09;;;15.34;52.16
64078;BME280;51039;49.696;10.808;2023-04-24T12:02:00;97551.25;;;15.38;49.64
64078;BME280;51039;49.696;10.808;2023-04-24T12:04:25;97547.97;;;15.03;50.48
64078;BME280;51039;49.696;10.808;2023-04-24T12:07:01;97550.19;;;14.84;50.87
64078;BME280;51039;49.696;10.808;2023-04-24T12:09:49;97558.34;;;14.56;52.76
64078;BME280;51039;49.696;10.808;2023-04-24T12:12:20;97574.66;;;14.20;54.14
64078;BME280;51039;49.696;10.808;2023-04-24T12:14:49;97568.63;;;14.08;55.64
64078;BME280;51039;49.696;10.808;2023-04-24T12:17:17;97572.03;;;14.03;54.46
64078;BME280;51039;49.696;10.808;2023-04-24T12:19:48;97578.16;;;13.87;54.79
64078;BME280;51039;49.696;10.808;2023-04-24T12:22:14;97583.50;;;13.70;54.45
64078;BME280;51039;49.696;10.808;2023-04-24T12:24:59;97580.19;;;13.80;55.91
64078;BME280;51039;49.696;10.808;2023-04-24T12:27:26;97581.66;;;13.70;55.79
64078;BME280;51039;49.696;10.808;2023-04-24T12:29:56;97580.28;;;13.85;56.42
64078;BME280;51039;49.696;10.808;2023-04-24T12:32:23;97576.56;;;13.86;55.77
64078;BME280;51039;49.696;10.808;2023-04-24T12:34:50;97568.53;;;14.20;56.61
64078;BME280;51039;49.696;10.808;2023-04-24T12:37:16;97555.59;;;15.49;52.80
64078;BME280;51039;49.696;10.808;2023-04-24T12:39:58;97566.91;;;16.41;53.01
64078;BME280;51039;49.696;10.808;2023-04-24T12:42:28;97558.41;;;16.02;51.44
64078;BME280;51039;49.696;10.808;2023-04-24T12:44:58;97556.63;;;14.88;53.26
64078;BME280;51039;49.696;10.808;2023-04-24T12:47:25;97559.53;;;14.04;55.93
64078;BME280;51039;49.696;10.808;2023-04-24T12:49:52;97561.00;;;13.61;57.72
64078;BME280;51039;49.696;10.808;2023-04-24T12:52:18;97555.00;;;13.37;57.08
64078;BME280;51039;49.696;10.808;2023-04-24T12:54:48;97556.16;;;13.12;58.34
64078;BME280;51039;49.696;10.808;2023-04-24T12:57:13;97562.44;;;13.06;57.12
64078;BME280;51039;49.696;10.808;2023-04-24T12:59:39;97567.59;;;13.12;57.43